^^
Saratoga-Weather Station Historical Data
Daily Summary for April 15, 2021 Units:  English    Metric   Both
Daily Weekly Monthly Yearly Custom
  High: Low: Average:
Temperature: 50.5 °F 33.3 °F 41.7 °F
Dew Point: 34.3 °F 28 °F 30.7 °F
Humidity: 87% 42% 67%
Wind Speed: 11mph 0mph 2.1mph
Wind Gust: 16mph - -
Wind- - SE
Pressure: 30.4 in 30.3 in -
Precipitation: 0 in    
Historical Graphs
 
 
Tabular Data for April 15, 2021
Time Temperature Dew Point Pressure Wind Wind Speed Wind Gust Humidity Rainfall Rate (Hourly) solar
00:00 38.8 °F 30.6 °F 30.4 in NNE 2 mph 4 mph 72% 0 in 0 W/m2
00:05 38.7 °F 30.4 °F 30.4 in NNW 2.9 mph 3 mph 72% 0 in 0 W/m2
00:10 38.7 °F 30.7 °F 30.4 in NNW 2 mph 4 mph 73% 0 in 0 W/m2
00:15 38.5 °F 30.2 °F 30.4 in WNW 0.9 mph 5 mph 72% 0 in 0 W/m2
00:20 38.5 °F 30.6 °F 30.4 in WNW 4 mph 5 mph 73% 0 in 0 W/m2
00:25 38.3 °F 30.4 °F 30.4 in NNW 0.9 mph 3 mph 73% 0 in 0 W/m2
00:30 38.1 °F 30.2 °F 30.4 in NNE 2.9 mph 3 mph 73% 0 in 0 W/m2
00:35 37.9 °F 30 °F 30.4 in Calm   3 mph 73% 0 in 0 W/m2
00:40 37.9 °F 30 °F 30.4 in NE 0.9 mph 3 mph 73% 0 in 0 W/m2
00:45 37.8 °F 29.8 °F 30.4 in ENE 0.9 mph 2 mph 73% 0 in 0 W/m2
00:50 37.6 °F 30 °F 30.4 in Calm   1 mph 74% 0 in 0 W/m2
00:55 37.4 °F 29.8 °F 30.4 in East 0.9 mph 2 mph 74% 0 in 0 W/m2
01:00 37.2 °F 29.7 °F 30.4 in NNE 2 mph 2 mph 74% 0 in 0 W/m2
01:05 37 °F 29.5 °F 30.4 in ENE 0.9 mph 1 mph 74% 0 in 0 W/m2
01:10 37 °F 29.8 °F 30.4 in SSE 0.9 mph 3 mph 75% 0 in 0 W/m2
01:15 36.9 °F 29.7 °F 30.4 in Calm   1 mph 75% 0 in 0 W/m2
01:20 36.9 °F 29.7 °F 30.4 in ENE 0.9 mph 3 mph 75% 0 in 0 W/m2
01:25 36.7 °F 29.8 °F 30.4 in WNW 2 mph 3 mph 76% 0 in 0 W/m2
01:30 36.7 °F 29.8 °F 30.4 in Calm   5 mph 76% 0 in 0 W/m2
01:35 36.9 °F 30.4 °F 30.4 in NW 0.9 mph 4 mph 77% 0 in 0 W/m2
01:40 37 °F 30.2 °F 30.4 in WNW 2 mph 4 mph 76% 0 in 0 W/m2
01:45 37 °F 30.2 °F 30.4 in NW 0.9 mph 4 mph 76% 0 in 0 W/m2
01:50 37 °F 30.2 °F 30.4 in Calm   2 mph 76% 0 in 0 W/m2
01:55 36.9 °F 30 °F 30.4 in Calm   4 mph 76% 0 in 0 W/m2
02:01 36.7 °F 29.8 °F 30.4 in East 2.9 mph 4 mph 76% 0 in 0 W/m2
02:06 36.3 °F 29.5 °F 30.4 in ENE 2 mph 2 mph 76% 0 in 0 W/m2
02:11 36.1 °F 29.7 °F 30.4 in Calm   2 mph 77% 0 in 0 W/m2
02:16 36 °F 29.8 °F 30.4 in SE 2 mph 4 mph 78% 0 in 0 W/m2
02:21 35.8 °F 29.7 °F 30.4 in Calm   2 mph 78% 0 in 0 W/m2
02:26 35.8 °F 29.7 °F 30.3 in Calm   2 mph 78% 0 in 0 W/m2
02:31 35.4 °F 29.5 °F 30.3 in East 2 mph 3 mph 79% 0 in 0 W/m2
02:36 35.4 °F 29.5 °F 30.3 in Calm   1 mph 79% 0 in 0 W/m2
02:41 35.2 °F 29.3 °F 30.3 in Calm   3 mph 79% 0 in 0 W/m2
02:46 35.4 °F 29.8 °F 30.3 in ESE 0.9 mph 1 mph 80% 0 in 0 W/m2
02:51 35.4 °F 29.8 °F 30.3 in NNE 0.9 mph 2 mph 80% 0 in 0 W/m2
02:56 35.4 °F 29.8 °F 30.3 in Calm   1 mph 80% 0 in 0 W/m2
03:01 35.2 °F 29.3 °F 30.3 in Calm   1 mph 79% 0 in 0 W/m2
03:06 35.2 °F 29.7 °F 30.3 in SSE 2 mph 2 mph 80% 0 in 0 W/m2
03:11 35.1 °F 29.5 °F 30.3 in Calm   2 mph 80% 0 in 0 W/m2
03:16 35.1 °F 29.5 °F 30.3 in Calm   2 mph 80% 0 in 0 W/m2
03:21 34.9 °F 29.7 °F 30.3 in ESE 0.9 mph 3 mph 81% 0 in 0 W/m2
03:26 34.9 °F 29.7 °F 30.3 in Calm   2 mph 81% 0 in 0 W/m2
03:31 34.7 °F 29.5 °F 30.3 in Calm   2 mph 81% 0 in 0 W/m2
03:36 34.5 °F 29.3 °F 30.3 in Calm   2 mph 81% 0 in 0 W/m2
03:41 34.5 °F 29.7 °F 30.3 in Calm   2 mph 82% 0 in 0 W/m2
03:46 34.5 °F 29.7 °F 30.3 in ESE 2 mph 3 mph 82% 0 in 0 W/m2
03:51 34.3 °F 29.5 °F 30.3 in Calm   1 mph 82% 0 in 0 W/m2
03:56 34.3 °F 29.5 °F 30.3 in Calm   3 mph 82% 0 in 0 W/m2
04:01 34.3 °F 29.5 °F 30.3 in ENE 2.9 mph 4 mph 82% 0 in 0 W/m2
04:06 34.5 °F 29.7 °F 30.3 in ENE 0.9 mph 1 mph 82% 0 in 0 W/m2
04:11 34.3 °F 29.5 °F 30.3 in ENE 2 mph 4 mph 82% 0 in 0 W/m2
04:16 34.3 °F 29.5 °F 30.3 in ENE 0.9 mph 3 mph 82% 0 in 0 W/m2
04:21 34.3 °F 29.5 °F 30.3 in ENE 2 mph 3 mph 82% 0 in 0 W/m2
04:26 34.3 °F 29.5 °F 30.3 in East 0.9 mph 2 mph 82% 0 in 0 W/m2
04:31 34.2 °F 29.3 °F 30.3 in Calm   2 mph 82% 0 in 0 W/m2
04:36 34 °F 29.3 °F 30.3 in NNE 0.9 mph 2 mph 83% 0 in 0 W/m2
04:41 33.8 °F 29.1 °F 30.3 in Calm   3 mph 83% 0 in 0 W/m2
04:46 33.8 °F 29.5 °F 30.3 in Calm     84% 0 in 0 W/m2
04:51 33.6 °F 29.3 °F 30.3 in SSW 0.9 mph 3 mph 84% 0 in 0 W/m2
04:56 33.4 °F 29.1 °F 30.3 in Calm   1 mph 84% 0 in 0 W/m2
05:01 33.4 °F 29.1 °F 30.3 in SSW 0.9 mph 2 mph 84% 0 in 0 W/m2
05:06 33.3 °F 28.9 °F 30.3 in Calm   2 mph 84% 0 in 0 W/m2
05:11 33.3 °F 29.3 °F 30.3 in Calm   1 mph 85% 0 in 0 W/m2
05:16 33.3 °F 29.5 °F 30.3 in SE 0.9 mph 2 mph 86% 0 in 0 W/m2
05:22 33.3 °F 29.5 °F 30.3 in Calm   1 mph 86% 0 in 0 W/m2
05:27 33.3 °F 29.5 °F 30.3 in Calm   2 mph 86% 0 in 0 W/m2
05:32 33.3 °F 29.5 °F 30.3 in Calm     86% 0 in 0 W/m2
05:37 33.3 °F 29.5 °F 30.3 in Calm   1 mph 86% 0 in 0 W/m2
05:42 33.3 °F 29.5 °F 30.3 in SE 0.9 mph 2 mph 86% 0 in 0 W/m2
05:47 33.4 °F 29.7 °F 30.3 in ESE 0.9 mph 1 mph 86% 0 in 0 W/m2
05:52 33.6 °F 30.2 °F 30.3 in Calm     87% 0 in 0 W/m2
05:57 33.6 °F 29.8 °F 30.3 in WSW 2 mph 2 mph 86% 0 in 0 W/m2
06:02 34 °F 30.2 °F 30.3 in WSW 0.9 mph 2 mph 86% 0 in 0 W/m2
06:07 34 °F 30.2 °F 30.3 in WSW 2.9 mph 3 mph 86% 0 in 0 W/m2
06:12 34.3 °F 30.6 °F 30.3 in Calm   1 mph 86% 0 in 0 W/m2
06:17 34.3 °F 30.4 °F 30.3 in Calm   2 mph 85% 0 in 0 W/m2
06:22 34.5 °F 30.6 °F 30.3 in SW 0.9 mph 2 mph 85% 0 in 0 W/m2
06:27 34.3 °F 30.4 °F 30.3 in Calm   1 mph 85% 0 in 0 W/m2
06:32 34.3 °F 30.4 °F 30.3 in Calm   2 mph 85% 0 in 0 W/m2
06:37 34.3 °F 30 °F 30.3 in Calm   2 mph 84% 0 in 0 W/m2
06:42 34.3 °F 30 °F 30.3 in Calm   4 mph 84% 0 in 0 W/m2
06:47 34.3 °F 30.4 °F 30.3 in Calm   1 mph 85% 0 in 5 W/m2
06:52 34.3 °F 30.4 °F 30.3 in West 0.9 mph 2 mph 85% 0 in 7 W/m2
06:57 34.3 °F 30.4 °F 30.3 in WNW 0.9 mph 1 mph 85% 0 in 11 W/m2
07:02 34.3 °F 30 °F 30.4 in Calm   2 mph 84% 0 in 12 W/m2
07:07 34.2 °F 30.2 °F 30.3 in NNE 0.9 mph 4 mph 85% 0 in 16 W/m2
07:12 34.2 °F 30.2 °F 30.4 in NNW 0.9 mph 2 mph 85% 0 in 18 W/m2
07:17 34.2 °F 30.2 °F 30.4 in North 2 mph 3 mph 85% 0 in 21 W/m2
07:22 34.3 °F 30.4 °F 30.4 in ESE 0.9 mph 3 mph 85% 0 in 25 W/m2
07:27 34.3 °F 30.4 °F 30.4 in North 0.9 mph 2 mph 85% 0 in 26 W/m2
07:32 34.3 °F 30.4 °F 30.4 in NNE 2 mph 3 mph 85% 0 in 28 W/m2
07:37 34.3 °F 30.4 °F 30.4 in NE 0.9 mph 4 mph 85% 0 in 32 W/m2
07:42 34.3 °F 30.4 °F 30.4 in Calm   1 mph 85% 0 in 33 W/m2
07:47 34.5 °F 30.6 °F 30.4 in Calm   3 mph 85% 0 in 37 W/m2
07:52 34.5 °F 30.6 °F 30.4 in Calm   4 mph 85% 0 in 40 W/m2
07:57 34.9 °F 30.9 °F 30.4 in Calm   4 mph 85% 0 in 42 W/m2
08:02 34.9 °F 30.9 °F 30.4 in ENE 0.9 mph 3 mph 85% 0 in 44 W/m2
08:07 35.1 °F 30.7 °F 30.4 in NNW 6 mph 6 mph 84% 0 in 46 W/m2
08:12 35.2 °F 30.9 °F 30.4 in West 2 mph 3 mph 84% 0 in 56 W/m2
08:17 35.6 °F 30.9 °F 30.4 in North 0.9 mph 3 mph 83% 0 in 109 W/m2
08:22 35.8 °F 31.1 °F 30.4 in NE 4 mph 7 mph 83% 0 in 153 W/m2
08:27 36.1 °F 31.5 °F 30.4 in WNW 2 mph 4 mph 83% 0 in 174 W/m2
08:32 36.1 °F 31.5 °F 30.4 in North 2 mph 7 mph 83% 0 in 192 W/m2
08:37 36.5 °F 31.5 °F 30.4 in NE 0.9 mph 4 mph 82% 0 in 209 W/m2
08:42 36.9 °F 31.8 °F 30.4 in SE 2 mph 3 mph 82% 0 in 223 W/m2
08:47 37 °F 31.8 °F 30.4 in East 4 mph 8 mph 81% 0 in 241 W/m2
08:52 37 °F 31.8 °F 30.4 in East 0.9 mph 6 mph 81% 0 in 255 W/m2
08:57 37.2 °F 32 °F 30.4 in SW 0.9 mph 5 mph 81% 0 in 267 W/m2
09:02 37.4 °F 32.2 °F 30.4 in NNW 2.9 mph 3 mph 81% 0 in 290 W/m2
09:07 37.8 °F 32.5 °F 30.4 in NW 2 mph 4 mph 81% 0 in 297 W/m2
09:12 37.9 °F 32.4 °F 30.4 in ESE 2.9 mph 6 mph 80% 0 in 276 W/m2
09:17 38.3 °F 32.7 °F 30.4 in WNW 2.9 mph 4 mph 80% 0 in 76 W/m2
09:22 38.7 °F 32.7 °F 30.4 in East 6.9 mph 7 mph 79% 0 in 109 W/m2
09:27 39 °F 33.1 °F 30.4 in North 2 mph 8 mph 79% 0 in 348 W/m2
09:32 39.6 °F 33.6 °F 30.4 in Calm   3 mph 79% 0 in 366 W/m2
09:37 39.9 °F 33.3 °F 30.4 in NE 2 mph 8 mph 77% 0 in 381 W/m2
09:42 40.3 °F 33.3 °F 30.4 in ENE 4 mph 6 mph 76% 0 in 403 W/m2
09:47 40.5 °F 33.1 °F 30.4 in ENE 4 mph 7 mph 75% 0 in 422 W/m2
09:52 40.8 °F 33.4 °F 30.4 in ESE 2.9 mph 5 mph 75% 0 in 434 W/m2
09:57 41.2 °F 33.4 °F 30.4 in SE 2 mph 2 mph 74% 0 in 448 W/m2
10:02 41.4 °F 33.1 °F 30.4 in ESE 2 mph 4 mph 72% 0 in 466 W/m2
10:07 41.9 °F 33.8 °F 30.4 in ESE 2 mph 7 mph 73% 0 in 476 W/m2
10:12 42.3 °F 33.8 °F 30.4 in ENE 0.9 mph 5 mph 72% 0 in 487 W/m2
10:17 42.6 °F 34.2 °F 30.4 in East 4 mph 4 mph 72% 0 in 503 W/m2
10:22 43 °F 33.4 °F 30.4 in East 0.9 mph 2 mph 69% 0 in 526 W/m2
10:27 43 °F 33.8 °F 30.4 in East 0.9 mph 2 mph 70% 0 in 552 W/m2
10:32 43.2 °F 34 °F 30.4 in SE 4 mph 9 mph 70% 0 in 548 W/m2
10:37 43.2 °F 33.6 °F 30.4 in East 2.9 mph 4 mph 69% 0 in 555 W/m2
10:42 43.3 °F 33.4 °F 30.4 in East 2.9 mph 7 mph 68% 0 in 580 W/m2
10:47 43.7 °F 34.2 °F 30.4 in NNE 4 mph 10 mph 69% 0 in 615 W/m2
10:52 43.9 °F 33.6 °F 30.4 in ENE 2.9 mph 9 mph 67% 0 in 605 W/m2
10:57 43.9 °F 33.6 °F 30.4 in NNW 2.9 mph 7 mph 67% 0 in 622 W/m2
11:02 44.2 °F 34.3 °F 30.4 in East 2 mph 8 mph 68% 0 in 664 W/m2
11:07 44.8 °F 33.8 °F 30.4 in ENE 2 mph 7 mph 65% 0 in 626 W/m2
11:12 45 °F 33.4 °F 30.4 in SSE 6 mph 7 mph 64% 0 in 670 W/m2
11:17 45.1 °F 33.6 °F 30.4 in North 0.9 mph 9 mph 64% 0 in 670 W/m2
11:22 45.1 °F 33.6 °F 30.4 in NE 2.9 mph 4 mph 64% 0 in 740 W/m2
11:27 45 °F 33.4 °F 30.4 in NNE 0.9 mph 7 mph 64% 0 in 705 W/m2
11:32 45.1 °F 33.6 °F 30.4 in North 0.9 mph 3 mph 64% 0 in 724 W/m2
11:37 45.3 °F 32.7 °F 30.4 in NE 2.9 mph 4 mph 61% 0 in 735 W/m2
11:42 45.5 °F 33.3 °F 30.4 in ENE 0.9 mph 8 mph 62% 0 in 737 W/m2
11:47 45.7 °F 33.4 °F 30.4 in ESE 6 mph 8 mph 62% 0 in 768 W/m2
11:52 46.2 °F 33.1 °F 30.4 in East 6 mph 6 mph 60% 0 in 798 W/m2
11:57 46.2 °F 32.2 °F 30.4 in South 0.9 mph 4 mph 58% 0 in 805 W/m2
12:02 46.8 °F 32.7 °F 30.4 in East 0.9 mph 8 mph 58% 0 in 877 W/m2
12:07 47.1 °F 32.2 °F 30.4 in NE 8.9 mph 10 mph 56% 0 in 171 W/m2
12:12 46.8 °F 32.7 °F 30.4 in Calm   4 mph 58% 0 in 227 W/m2
12:17 46.4 °F 33.3 °F 30.4 in SSE 0.9 mph 5 mph 60% 0 in 330 W/m2
12:22 46.8 °F 33.3 °F 30.4 in East 2 mph 5 mph 59% 0 in 807 W/m2
12:27 47.5 °F 33.1 °F 30.4 in ESE 2 mph 6 mph 57% 0 in 912 W/m2
12:32 47.7 °F 33.3 °F 30.3 in East 0.9 mph 4 mph 57% 0 in 905 W/m2
12:37 48 °F 32.5 °F 30.3 in SE 4 mph 8 mph 55% 0 in 200 W/m2
12:42 48 °F 32.2 °F 30.3 in East 4.9 mph 9 mph 54% 0 in 893 W/m2
12:47 48.4 °F 33.4 °F 30.3 in NNW 2.9 mph 6 mph 56% 0 in 942 W/m2
12:52 48.6 °F 34 °F 30.3 in NW 4.9 mph 7 mph 57% 0 in 965 W/m2
12:57 48.6 °F 31.3 °F 30.3 in ESE 6 mph 11 mph 51% 0 in 214 W/m2
13:02 47.7 °F 30.9 °F 30.3 in NE 6 mph 11 mph 52% 0 in 265 W/m2
13:07 47.3 °F 31.1 °F 30.3 in NE 2.9 mph 10 mph 53% 0 in 288 W/m2
13:12 47.7 °F 31.3 °F 30.3 in East 4 mph 9 mph 53% 0 in 933 W/m2
13:17 47.8 °F 31.5 °F 30.3 in NNE 2.9 mph 10 mph 53% 0 in 258 W/m2
13:22 47.7 °F 31.3 °F 30.3 in ESE 10.1 mph 10 mph 53% 0 in 220 W/m2
13:27 47.1 °F 31.3 °F 30.3 in SE 2 mph 8 mph 54% 0 in 258 W/m2
13:32 47.7 °F 32.4 °F 30.3 in NNW 0.9 mph 10 mph 55% 0 in 875 W/m2
13:37 48.6 °F 33.6 °F 30.3 in WSW 2.9 mph 4 mph 56% 0 in 886 W/m2
13:42 48.9 °F 31.1 °F 30.3 in SW 2.9 mph 3 mph 50% 0 in 944 W/m2
13:47 49.3 °F 32 °F 30.3 in NNW 0.9 mph 3 mph 51% 0 in 234 W/m2
13:52 48.7 °F 30.9 °F 30.3 in ENE 2.9 mph 8 mph 50% 0 in 301 W/m2
13:57 48.9 °F 31.1 °F 30.3 in ENE 2 mph 5 mph 50% 0 in 1049 W/m2
14:02 49.3 °F 31.5 °F 30.3 in North 2 mph 6 mph 50% 0 in 1046 W/m2
14:08 49.3 °F 30.4 °F 30.3 in NNW 2 mph 6 mph 48% 0 in 320 W/m2
14:13 49.1 °F 32.2 °F 30.3 in NNW 6 mph 8 mph 52% 0 in 276 W/m2
14:18 48.7 °F 31.5 °F 30.3 in NNW 4 mph 5 mph 51% 0 in 287 W/m2
14:23 48.4 °F 31.1 °F 30.3 in East 2.9 mph 6 mph 51% 0 in 183 W/m2
14:28 47.8 °F 31.5 °F 30.3 in North 2 mph 12 mph 53% 0 in 114 W/m2
14:33 46.8 °F 29.7 °F 30.3 in ENE 8.1 mph 9 mph 51% 0 in 149 W/m2
14:38 45.9 °F 28.8 °F 30.3 in SW 0.9 mph 2 mph 51% 0 in 241 W/m2
14:43 45.7 °F 28.6 °F 30.3 in WNW 2 mph 3 mph 51% 0 in 364 W/m2
14:48 46 °F 28.4 °F 30.3 in ESE 2 mph 3 mph 50% 0 in 640 W/m2
14:53 46.8 °F 29.7 °F 30.3 in NW 2 mph 2 mph 51% 0 in 663 W/m2
14:58 47.3 °F 29.1 °F 30.3 in WSW 4 mph 4 mph 49% 0 in 842 W/m2
15:03 47.8 °F 29.7 °F 30.3 in SW 0.9 mph 2 mph 49% 0 in 807 W/m2
15:08 48.7 °F 30.4 °F 30.3 in East 2 mph 9 mph 49% 0 in 214 W/m2
15:13 49.5 °F 29.5 °F 30.3 in ESE 2 mph 8 mph 46% 0 in 974 W/m2
15:18 49.8 °F 30.4 °F 30.3 in ENE 2.9 mph 11 mph 47% 0 in 1007 W/m2
15:23 50.2 °F 31.3 °F 30.3 in NE 6 mph 13 mph 48% 0 in 230 W/m2
15:28 49.1 °F 28.8 °F 30.3 in SE 2.9 mph 7 mph 45% 0 in 207 W/m2
15:33 48.6 °F 28.2 °F 30.3 in ESE 2.9 mph 9 mph 45% 0 in 211 W/m2
15:38 48.2 °F 28.9 °F 30.3 in NE 4 mph 5 mph 47% 0 in 220 W/m2
15:43 48 °F 29.3 °F 30.3 in ENE 4 mph 6 mph 48% 0 in 214 W/m2
15:48 47.8 °F 28.6 °F 30.3 in Calm   6 mph 47% 0 in 223 W/m2
15:53 48 °F 29.3 °F 30.3 in ENE 6 mph 6 mph 48% 0 in 802 W/m2
15:58 48.7 °F 29.5 °F 30.3 in SE 0.9 mph 9 mph 47% 0 in 770 W/m2
16:03 49.6 °F 28.6 °F 30.3 in Calm   11 mph 44% 0 in 707 W/m2
16:08 50.2 °F 28 °F 30.3 in NE 6.9 mph 7 mph 42% 0 in 775 W/m2
16:13 50.4 °F 28.8 °F 30.3 in East 4.9 mph 6 mph 43% 0 in 849 W/m2
16:18 50.5 °F 28.9 °F 30.3 in ENE 8.9 mph 9 mph 43% 0 in 163 W/m2
16:23 50 °F 29.5 °F 30.3 in NE 0.9 mph 6 mph 45% 0 in 72 W/m2
16:28 49.3 °F 28.8 °F 30.3 in NNE 2 mph 9 mph 45% 0 in 49 W/m2
16:33 48.4 °F 30 °F 30.3 in ESE 4 mph 8 mph 49% 0 in 76 W/m2
16:38 47.7 °F 30 °F 30.3 in ESE 2.9 mph 6 mph 50% 0 in 109 W/m2
16:43 47.5 °F 30.2 °F 30.3 in East 2 mph 4 mph 51% 0 in 151 W/m2
16:48 47.5 °F 30.2 °F 30.3 in East 2.9 mph 4 mph 51% 0 in 190 W/m2
16:53 47.5 °F 30.2 °F 30.3 in Calm     51% 0 in 213 W/m2
16:58 47.7 °F 30.4 °F 30.3 in ENE 2 mph 5 mph 51% 0 in 494 W/m2
17:03 48 °F 30.2 °F 30.3 in NW 0.9 mph 4 mph 50% 0 in 295 W/m2
17:08 48.4 °F 31.1 °F 30.3 in NW 2 mph 3 mph 51% 0 in 480 W/m2
17:13 48.7 °F 30.9 °F 30.3 in North 2.9 mph 5 mph 50% 0 in 355 W/m2
17:18 49.3 °F 30.4 °F 30.3 in NNE 0.9 mph 2 mph 48% 0 in 288 W/m2
17:23 49.6 °F 30.2 °F 30.3 in NNW 4.9 mph 7 mph 47% 0 in 613 W/m2
17:28 49.6 °F 30.2 °F 30.3 in NE 8.9 mph 16 mph 47% 0 in 90 W/m2
17:33 49.1 °F 29.7 °F 30.3 in NE 2 mph 10 mph 47% 0 in 81 W/m2
17:38 48.4 °F 29.1 °F 30.3 in ESE 2 mph 16 mph 47% 0 in 100 W/m2
17:43 47.8 °F 29.1 °F 30.3 in East 2.9 mph 8 mph 48% 0 in 118 W/m2
17:48 47.8 °F 29.1 °F 30.3 in ENE 9 mph 9 mph 48% 0 in 188 W/m2
17:53 48.2 °F 30 °F 30.3 in ESE 11 mph 11 mph 49% 0 in 464 W/m2
17:58 48.7 °F 29.8 °F 30.3 in South 2.9 mph 10 mph 48% 0 in 287 W/m2
18:03 48.6 °F 31.8 °F 30.3 in ESE 4 mph 12 mph 52% 0 in 302 W/m2
18:08 48 °F 31.6 °F 30.3 in East 0.9 mph 9 mph 53% 0 in 388 W/m2
18:13 47.8 °F 31.5 °F 30.3 in East 0.9 mph 4 mph 53% 0 in 338 W/m2
18:18 48 °F 30.7 °F 30.3 in ENE 2 mph 2 mph 51% 0 in 135 W/m2
18:23 48 °F 30.7 °F 30.3 in NNW 2.9 mph 3 mph 51% 0 in 76 W/m2
18:28 47.7 °F 30 °F 30.3 in Calm   5 mph 50% 0 in 56 W/m2
18:33 47.1 °F 29.8 °F 30.3 in ENE 2.9 mph 3 mph 51% 0 in 70 W/m2
18:38 47.3 °F 30 °F 30.3 in NE 0.9 mph 3 mph 51% 0 in 260 W/m2
18:43 47.7 °F 30.9 °F 30.3 in Calm   4 mph 52% 0 in 269 W/m2
18:48 48 °F 30.2 °F 30.3 in ENE 6.9 mph 7 mph 50% 0 in 260 W/m2
18:53 48 °F 30.7 °F 30.3 in ESE 2.9 mph 7 mph 51% 0 in 260 W/m2
18:58 48 °F 29.8 °F 30.3 in ENE 4.9 mph 9 mph 49% 0 in 246 W/m2
19:03 48 °F 29.8 °F 30.3 in ESE 2.9 mph 7 mph 49% 0 in 172 W/m2
19:08 48 °F 30.2 °F 30.3 in NE 0.9 mph 7 mph 50% 0 in 153 W/m2
19:13 47.7 °F 30 °F 30.3 in East 6.9 mph 11 mph 50% 0 in 120 W/m2
19:18 47.5 °F 30.2 °F 30.3 in ENE 2 mph 5 mph 51% 0 in 128 W/m2
19:23 47.3 °F 31.1 °F 30.3 in ESE 0.9 mph 3 mph 53% 0 in 91 W/m2
19:28 46.9 °F 31.1 °F 30.3 in ENE 4.9 mph 6 mph 54% 0 in 74 W/m2
19:33 46.6 °F 31.3 °F 30.3 in ESE 4 mph 6 mph 55% 0 in 69 W/m2
19:38 46.6 °F 31.6 °F 30.3 in NE 2 mph 3 mph 56% 0 in 91 W/m2
19:43 46.6 °F 31.6 °F 30.3 in NE 4.9 mph 7 mph 56% 0 in 88 W/m2
19:48 46.8 °F 32.4 °F 30.3 in ENE 2 mph 4 mph 57% 0 in 69 W/m2
19:53 46.8 °F 32.4 °F 30.3 in ESE 2.9 mph 9 mph 57% 0 in 40 W/m2
19:58 46.2 °F 32.2 °F 30.3 in NNE 0.9 mph 5 mph 58% 0 in 35 W/m2
20:03 45.9 °F 32.7 °F 30.3 in WSW 2.9 mph 5 mph 60% 0 in 30 W/m2
20:08 45.7 °F 33.1 °F 30.3 in NNW 0.9 mph 8 mph 61% 0 in 23 W/m2
20:13 45.3 °F 32.2 °F 30.3 in ENE 2.9 mph 4 mph 60% 0 in 16 W/m2
20:18 45.1 °F 32 °F 30.3 in NNW 2 mph 8 mph 60% 0 in 12 W/m2
20:23 45 °F 32 °F 30.3 in NNW 2 mph 4 mph 60% 0 in 9 W/m2
20:28 44.8 °F 31.3 °F 30.3 in East 0.9 mph 8 mph 59% 0 in 5 W/m2
20:33 44.6 °F 30.7 °F 30.3 in Calm   4 mph 58% 0 in 0 W/m2
20:38 44.4 °F 30.6 °F 30.3 in NW 2 mph 4 mph 58% 0 in 0 W/m2
20:43 44.4 °F 30.6 °F 30.3 in West 0.9 mph 1 mph 58% 0 in 0 W/m2
20:48 44.2 °F 30.4 °F 30.3 in ENE 2 mph 3 mph 58% 0 in 0 W/m2
20:53 44.1 °F 30.2 °F 30.3 in ENE 2 mph 3 mph 58% 0 in 0 W/m2
20:58 43.9 °F 30.6 °F 30.3 in NE 2 mph 2 mph 59% 0 in 0 W/m2
21:03 43.7 °F 30.7 °F 30.3 in East 2 mph 7 mph 60% 0 in 0 W/m2
21:08 43.5 °F 30.9 °F 30.3 in East 2.9 mph 4 mph 61% 0 in 0 W/m2
21:13 43.3 °F 31.3 °F 30.3 in East 2.9 mph 3 mph 62% 0 in 0 W/m2
21:18 43.3 °F 31.3 °F 30.3 in ENE 0.9 mph 3 mph 62% 0 in 0 W/m2
21:23 43.2 °F 31.5 °F 30.3 in ENE 2 mph 5 mph 63% 0 in 0 W/m2
21:28 43 °F 31.3 °F 30.3 in NE 2 mph 2 mph 63% 0 in 0 W/m2
21:33 43 °F 31.6 °F 30.3 in East 0.9 mph 4 mph 64% 0 in 0 W/m2
Juneau County Weather
Compliments of Weather Underground - 4 mb